createdAt,value
2018-01-07T00:00:18.886Z,0
2018-01-07T00:01:27.411Z,0
2018-01-07T00:02:36.866Z,0
2018-01-07T00:03:45.659Z,0
2018-01-07T00:04:54.718Z,0
2018-01-07T00:06:03.929Z,0
2018-01-07T00:07:12.505Z,0
2018-01-07T00:08:21.297Z,0
2018-01-07T00:09:30.357Z,0
2018-01-07T00:10:39.154Z,0
2018-01-07T00:11:47.949Z,0
2018-01-07T00:12:57.013Z,0
2018-01-07T00:14:05.823Z,0
2018-01-07T00:15:14.617Z,0
2018-01-07T00:16:23.407Z,0
2018-01-07T00:17:31.929Z,0
2018-01-07T00:18:41.520Z,0
2018-01-07T00:19:50.581Z,0
2018-01-07T00:20:59.114Z,0
2018-01-07T00:22:07.911Z,0
2018-01-07T00:23:16.709Z,0
2018-01-07T00:24:25.508Z,0
2018-01-07T00:25:34.838Z,0
2018-01-07T00:26:43.366Z,0
2018-01-07T00:27:52.160Z,0
2018-01-07T00:29:00.685Z,0
2018-01-07T00:30:09.481Z,0
2018-01-07T00:31:18.282Z,0
2018-01-07T00:32:27.868Z,0
2018-01-07T00:33:36.652Z,0
2018-01-07T00:34:45.171Z,0
2018-01-07T00:35:54.213Z,0
2018-01-07T00:37:03.519Z,0
2018-01-07T00:38:12.575Z,0
2018-01-07T00:39:21.355Z,0
2018-01-07T00:40:30.407Z,0
2018-01-07T00:41:39.716Z,0
2018-01-07T00:42:48.498Z,0
2018-01-07T00:43:57.020Z,0
2018-01-07T00:45:05.802Z,0
2018-01-07T00:46:14.851Z,0
2018-01-07T00:47:23.641Z,0
2018-01-07T00:48:32.424Z,0
2018-01-07T00:49:40.941Z,0
2018-01-07T00:50:49.988Z,0
2018-01-07T00:51:58.769Z,0
2018-01-07T00:53:07.815Z,0
2018-01-07T00:54:16.596Z,0
2018-01-07T00:55:25.648Z,0
2018-01-07T00:56:34.156Z,0
2018-01-07T00:57:42.669Z,0
2018-01-07T00:58:51.185Z,0
2018-01-07T00:59:59.715Z,0
2018-01-07T01:01:08.766Z,0
2018-01-07T01:02:17.549Z,0
2018-01-07T01:03:26.328Z,0
2018-01-07T01:04:35.110Z,0
2018-01-07T01:05:44.152Z,0
2018-01-07T01:06:52.934Z,0
2018-01-07T01:08:01.458Z,0
2018-01-07T01:09:10.777Z,0
2018-01-07T01:10:19.562Z,0
2018-01-07T01:11:28.608Z,0
2018-01-07T01:12:37.401Z,0
2018-01-07T01:13:46.176Z,0
2018-01-07T01:14:54.690Z,0
2018-01-07T01:16:03.734Z,0
2018-01-07T01:17:12.254Z,0
2018-01-07T01:18:21.296Z,0
2018-01-07T01:19:30.084Z,0
2018-01-07T01:20:38.596Z,0
2018-01-07T01:21:47.112Z,0
2018-01-07T01:22:55.632Z,0
2018-01-07T01:24:04.151Z,0
2018-01-07T01:25:12.943Z,0
2018-01-07T01:26:21.988Z,0
2018-01-07T01:27:30.772Z,0
2018-01-07T01:28:39.555Z,0
2018-01-07T01:29:48.336Z,0
2018-01-07T01:30:57.382Z,0
2018-01-07T01:32:05.900Z,0
2018-01-07T01:33:14.685Z,0
2018-01-07T01:34:23.206Z,0
2018-01-07T01:35:32.253Z,0
2018-01-07T01:36:41.037Z,0
2018-01-07T01:37:49.830Z,0
2018-01-07T01:38:58.344Z,0
2018-01-07T01:40:06.857Z,0
2018-01-07T01:41:15.645Z,0
2018-01-07T01:42:24.434Z,0
2018-01-07T01:43:33.504Z,0
2018-01-07T01:44:42.552Z,0
2018-01-07T01:45:51.611Z,0
2018-01-07T01:47:00.392Z,0
2018-01-07T01:48:08.908Z,0
2018-01-07T01:49:17.954Z,0
2018-01-07T01:50:26.736Z,0
2018-01-07T01:51:35.786Z,0
2018-01-07T01:52:44.300Z,0
2018-01-07T01:53:53.082Z,0
2018-01-07T01:55:02.127Z,0
2018-01-07T01:56:10.911Z,0
2018-01-07T01:57:19.429Z,0
2018-01-07T01:58:27.952Z,0
2018-01-07T01:59:36.740Z,0
2018-01-07T02:00:45.519Z,0
2018-01-07T02:01:54.037Z,0
2018-01-07T02:03:02.812Z,0
2018-01-07T02:04:11.604Z,0
2018-01-07T02:05:20.121Z,0
2018-01-07T02:06:29.170Z,0
2018-01-07T02:07:38.756Z,0
2018-01-07T02:08:47.277Z,0
2018-01-07T02:09:56.056Z,0
2018-01-07T02:11:04.838Z,0
2018-01-07T02:12:13.622Z,0
2018-01-07T02:13:22.942Z,0
2018-01-07T02:14:31.717Z,0
2018-01-07T02:15:40.497Z,0
2018-01-07T02:16:49.279Z,0
2018-01-07T02:17:58.066Z,0
2018-01-07T02:19:07.113Z,0
2018-01-07T02:20:15.631Z,0
2018-01-07T02:21:24.404Z,0
2018-01-07T02:22:32.924Z,0
2018-01-07T02:23:41.973Z,0
2018-01-07T02:24:50.756Z,0
2018-01-07T02:25:59.539Z,0
2018-01-07T02:27:08.319Z,0
2018-01-07T02:28:16.836Z,0
2018-01-07T02:29:25.353Z,0
2018-01-07T02:30:34.138Z,0
2018-01-07T02:31:42.919Z,0
2018-01-07T02:32:51.705Z,0
2018-01-07T02:34:00.486Z,0
2018-01-07T02:35:09.544Z,0
2018-01-07T02:36:18.330Z,0
2018-01-07T02:37:27.131Z,0
2018-01-07T02:38:36.180Z,0
2018-01-07T02:39:44.969Z,0
2018-01-07T02:40:53.483Z,0
2018-01-07T02:42:02.535Z,0
2018-01-07T02:43:11.580Z,0
2018-01-07T02:44:20.366Z,0
2018-01-07T02:45:29.148Z,0
2018-01-07T02:46:38.198Z,0
2018-01-07T02:47:47.512Z,0
2018-01-07T02:48:56.295Z,0
2018-01-07T02:50:04.811Z,0
2018-01-07T02:51:13.594Z,0
2018-01-07T02:52:22.376Z,0
2018-01-07T02:53:31.158Z,0
2018-01-07T02:54:39.676Z,0
2018-01-07T02:55:48.457Z,0
2018-01-07T02:56:56.976Z,0
2018-01-07T02:58:05.761Z,0
2018-01-07T02:59:14.274Z,0
2018-01-07T03:00:23.070Z,0
2018-01-07T03:01:32.117Z,0
2018-01-07T03:02:40.904Z,0
2018-01-07T03:03:49.422Z,0
2018-01-07T03:04:58.481Z,0
2018-01-07T03:06:07.264Z,0
2018-01-07T03:07:16.049Z,0
2018-01-07T03:08:25.364Z,0
2018-01-07T03:09:34.680Z,0
2018-01-07T03:10:43.194Z,0
2018-01-07T03:11:52.025Z,0
2018-01-07T03:13:01.071Z,0
2018-01-07T03:14:09.854Z,0
2018-01-07T03:15:18.639Z,0
2018-01-07T03:16:27.683Z,0
2018-01-07T03:17:36.468Z,0
2018-01-07T03:18:44.984Z,0
2018-01-07T03:19:54.298Z,0
2018-01-07T03:21:03.346Z,0
2018-01-07T03:22:12.127Z,0
2018-01-07T03:23:20.911Z,0
2018-01-07T03:24:29.696Z,0
2018-01-07T03:25:38.483Z,0
2018-01-07T03:26:46.997Z,0
2018-01-07T03:27:55.514Z,0
2018-01-07T03:29:04.032Z,0
2018-01-07T03:30:12.553Z,0
2018-01-07T03:31:21.334Z,0
2018-01-07T03:32:30.390Z,0
2018-01-07T03:33:39.432Z,0
2018-01-07T03:34:48.747Z,0
2018-01-07T03:35:57.266Z,0
2018-01-07T03:37:05.779Z,0
2018-01-07T03:38:14.300Z,0
2018-01-07T03:39:22.815Z,0
2018-01-07T03:40:31.911Z,0
2018-01-07T03:41:40.697Z,0
2018-01-07T03:42:49.741Z,0
2018-01-07T03:43:58.785Z,0
2018-01-07T03:45:07.573Z,0
2018-01-07T03:46:16.353Z,0
2018-01-07T03:47:25.132Z,0
2018-01-07T03:48:33.651Z,0
2018-01-07T03:49:42.427Z,0
2018-01-07T03:50:51.477Z,0
2018-01-07T03:52:00.790Z,0
2018-01-07T03:53:09.310Z,0
2018-01-07T03:54:18.625Z,0
2018-01-07T03:55:27.142Z,0
2018-01-07T03:56:35.928Z,0
2018-01-07T03:57:44.984Z,0
2018-01-07T03:58:53.763Z,0
2018-01-07T04:00:02.546Z,0
2018-01-07T04:01:11.066Z,0
2018-01-07T04:02:20.124Z,0
2018-01-07T04:03:28.903Z,0
2018-01-07T04:04:37.961Z,0
2018-01-07T04:05:46.742Z,0
2018-01-07T04:06:55.522Z,0
2018-01-07T04:08:04.039Z,0
2018-01-07T04:09:12.817Z,0
2018-01-07T04:10:21.882Z,0
2018-01-07T04:11:30.404Z,0
2018-01-07T04:12:39.187Z,0
2018-01-07T04:13:48.227Z,0
2018-01-07T04:14:57.311Z,0
2018-01-07T04:16:06.092Z,0
2018-01-07T04:17:14.612Z,0
2018-01-07T04:18:23.924Z,0
2018-01-07T04:19:32.708Z,0
2018-01-07T04:20:41.225Z,0
2018-01-07T04:21:50.279Z,0
2018-01-07T04:22:59.328Z,0
2018-01-07T04:24:08.114Z,0
2018-01-07T04:25:16.897Z,0
2018-01-07T04:26:25.676Z,0
2018-01-07T04:27:34.195Z,0
2018-01-07T04:28:43.248Z,0
2018-01-07T04:29:52.291Z,0
2018-01-07T04:31:01.076Z,0
2018-01-07T04:32:09.861Z,0
2018-01-07T04:33:19.177Z,0
2018-01-07T04:34:27.701Z,0
2018-01-07T04:35:36.221Z,0
2018-01-07T04:36:44.736Z,0
2018-01-07T04:37:53.781Z,0
2018-01-07T04:39:02.559Z,0
2018-01-07T04:40:11.336Z,0
2018-01-07T04:41:20.115Z,0
2018-01-07T04:42:28.902Z,0
2018-01-07T04:43:37.686Z,0
2018-01-07T04:44:46.206Z,0
2018-01-07T04:45:55.251Z,0
2018-01-07T04:47:03.771Z,0
2018-01-07T04:48:12.291Z,0
2018-01-07T04:49:21.069Z,0
2018-01-07T04:50:29.585Z,0
2018-01-07T04:51:38.367Z,0
2018-01-07T04:52:47.152Z,0
2018-01-07T04:53:56.199Z,0
2018-01-07T04:55:04.975Z,0
2018-01-07T04:56:13.766Z,0
2018-01-07T04:57:22.545Z,0
2018-01-07T04:58:31.322Z,0
2018-01-07T04:59:40.102Z,0
2018-01-07T05:00:48.884Z,0
2018-01-07T05:01:57.669Z,0
2018-01-07T05:03:06.456Z,0
2018-01-07T05:04:14.973Z,0
2018-01-07T05:05:24.020Z,0
2018-01-07T05:06:33.327Z,0
2018-01-07T05:07:42.105Z,0
2018-01-07T05:08:50.889Z,0
2018-01-07T05:09:59.407Z,0
2018-01-07T05:11:08.454Z,0
2018-01-07T05:12:16.976Z,0
2018-01-07T05:13:25.499Z,0
2018-01-07T05:14:34.543Z,0
2018-01-07T05:15:43.592Z,0
2018-01-07T05:16:52.111Z,0
2018-01-07T05:18:00.893Z,0
2018-01-07T05:19:09.674Z,0
2018-01-07T05:20:18.456Z,0
2018-01-07T05:21:27.499Z,0
2018-01-07T05:22:36.022Z,0
2018-01-07T05:23:44.807Z,0
2018-01-07T05:24:53.589Z,0
2018-01-07T05:26:02.109Z,0
2018-01-07T05:27:10.628Z,0
2018-01-07T05:28:19.158Z,0
2018-01-07T05:29:27.671Z,0
2018-01-07T05:30:36.189Z,0
2018-01-07T05:31:44.966Z,0
2018-01-07T05:32:53.754Z,0
2018-01-07T05:34:03.069Z,0
2018-01-07T05:35:11.852Z,0
2018-01-07T05:36:20.632Z,0
2018-01-07T05:37:29.680Z,0
2018-01-07T05:38:38.461Z,0
2018-01-07T05:39:47.251Z,0
2018-01-07T05:40:56.037Z,0
2018-01-07T05:42:05.083Z,0
2018-01-07T05:43:14.130Z,0
2018-01-07T05:44:22.913Z,0
2018-01-07T05:45:31.699Z,0
2018-01-07T05:46:40.481Z,0
2018-01-07T05:47:49.268Z,0
2018-01-07T05:48:58.048Z,0
2018-01-07T05:50:06.830Z,0
2018-01-07T05:51:16.183Z,0
2018-01-07T05:52:26.253Z,0
2018-01-07T05:53:35.033Z,0
2018-01-07T05:54:43.551Z,0
2018-01-07T05:55:52.340Z,0
2018-01-07T05:57:01.919Z,0
2018-01-07T05:58:10.699Z,0
2018-01-07T05:59:19.483Z,0
2018-01-07T06:00:28.277Z,0
2018-01-07T06:01:37.584Z,0
2018-01-07T06:02:46.894Z,0
2018-01-07T06:03:55.410Z,0
2018-01-07T06:05:03.928Z,0
2018-01-07T06:06:12.710Z,0
2018-01-07T06:07:21.492Z,0
2018-01-07T06:08:30.280Z,0
2018-01-07T06:09:39.063Z,0
2018-01-07T06:10:47.581Z,0
2018-01-07T06:11:56.364Z,0
2018-01-07T06:13:04.875Z,0
2018-01-07T06:14:13.394Z,0
2018-01-07T06:15:22.443Z,0
2018-01-07T06:16:31.488Z,0
2018-01-07T06:17:40.004Z,0
2018-01-07T06:18:49.049Z,0
2018-01-07T06:19:57.565Z,0
2018-01-07T06:21:06.614Z,0
2018-01-07T06:22:15.668Z,0
2018-01-07T06:23:24.717Z,0
2018-01-07T06:24:33.498Z,0
2018-01-07T06:25:42.814Z,0
2018-01-07T06:26:51.867Z,0
2018-01-07T06:28:00.386Z,0
2018-01-07T06:29:09.168Z,0
2018-01-07T06:30:17.947Z,0
2018-01-07T06:31:26.734Z,0
2018-01-07T06:32:35.513Z,0
2018-01-07T06:33:44.027Z,0
2018-01-07T06:34:53.072Z,0
2018-01-07T06:36:01.589Z,0
2018-01-07T06:37:10.643Z,0
2018-01-07T06:38:19.448Z,0
2018-01-07T06:39:28.232Z,0
2018-01-07T06:40:37.015Z,0
2018-01-07T06:41:45.534Z,0
2018-01-07T06:42:54.311Z,0
2018-01-07T06:44:03.121Z,0
2018-01-07T06:45:11.879Z,0
2018-01-07T06:46:20.396Z,0
2018-01-07T06:47:28.911Z,0
2018-01-07T06:48:37.699Z,0
2018-01-07T06:49:46.481Z,0
2018-01-07T06:50:55.536Z,0
2018-01-07T06:52:04.318Z,0
2018-01-07T06:53:13.366Z,0
2018-01-07T06:54:21.885Z,0
2018-01-07T06:55:30.666Z,0
2018-01-07T06:56:39.713Z,0
2018-01-07T06:57:48.490Z,0
2018-01-07T06:58:57.266Z,0
2018-01-07T07:00:06.582Z,0
2018-01-07T07:01:15.628Z,0
2018-01-07T07:02:24.677Z,0
2018-01-07T07:03:33.462Z,0
2018-01-07T07:04:42.503Z,0
2018-01-07T07:05:51.279Z,0
2018-01-07T07:06:59.802Z,0
2018-01-07T07:08:08.850Z,4
2018-01-07T07:09:17.372Z,4
2018-01-07T07:10:26.157Z,4
2018-01-07T07:11:34.938Z,4
2018-01-07T07:12:43.989Z,4
2018-01-07T07:13:52.770Z,4
2018-01-07T07:15:01.287Z,4
2018-01-07T07:16:10.597Z,8
2018-01-07T07:17:19.383Z,8
2018-01-07T07:18:28.167Z,12
2018-01-07T07:19:37.484Z,12
2018-01-07T07:20:46.267Z,16
2018-01-07T07:21:55.311Z,20
2018-01-07T07:23:04.097Z,20
2018-01-07T07:24:12.885Z,24
2018-01-07T07:25:21.662Z,24
2018-01-07T07:26:30.443Z,28
2018-01-07T07:27:39.494Z,32
2018-01-07T07:28:48.279Z,36
2018-01-07T07:29:56.797Z,44
2018-01-07T07:31:05.588Z,48
2018-01-07T07:32:14.630Z,56
2018-01-07T07:33:23.148Z,64
2018-01-07T07:34:31.928Z,72
2018-01-07T07:35:40.446Z,84
2018-01-07T07:36:49.492Z,92
2018-01-07T07:37:58.535Z,112
2018-01-07T07:39:07.313Z,120
2018-01-07T07:40:15.830Z,128
2018-01-07T07:41:24.616Z,140
2018-01-07T07:42:33.658Z,152
2018-01-07T07:43:42.438Z,164
2018-01-07T07:44:50.957Z,184
2018-01-07T07:45:59.478Z,200
2018-01-07T07:47:08.265Z,212
2018-01-07T07:48:17.045Z,240
2018-01-07T07:49:25.565Z,256
2018-01-07T07:50:34.353Z,252
2018-01-07T07:51:42.874Z,264
2018-01-07T07:52:51.930Z,292
2018-01-07T07:54:00.449Z,320
2018-01-07T07:55:09.230Z,324
2018-01-07T07:56:18.285Z,340
2018-01-07T07:57:27.063Z,356
2018-01-07T07:58:35.841Z,368
2018-01-07T07:59:44.632Z,388
2018-01-07T08:00:53.418Z,400
2018-01-07T08:02:02.202Z,412
2018-01-07T08:03:10.989Z,424
2018-01-07T08:04:20.036Z,436
2018-01-07T08:05:28.818Z,448
2018-01-07T08:06:37.599Z,460
2018-01-07T08:07:46.118Z,480
2018-01-07T08:08:54.636Z,496
2018-01-07T08:10:03.482Z,508
2018-01-07T08:11:11.996Z,528
2018-01-07T08:12:20.779Z,544
2018-01-07T08:13:29.560Z,556
2018-01-07T08:14:38.335Z,568
2018-01-07T08:15:47.383Z,588
2018-01-07T08:16:55.902Z,596
2018-01-07T08:18:04.681Z,608
2018-01-07T08:19:13.746Z,624
2018-01-07T08:20:22.527Z,640
2018-01-07T08:21:31.310Z,660
2018-01-07T08:22:40.094Z,684
2018-01-07T08:23:49.148Z,704
2018-01-07T08:24:57.662Z,732
2018-01-07T08:26:06.180Z,764
2018-01-07T08:27:15.232Z,792
2018-01-07T08:28:24.018Z,820
2018-01-07T08:29:33.062Z,848
2018-01-07T08:30:41.847Z,876
2018-01-07T08:31:50.890Z,900
2018-01-07T08:32:59.404Z,920
2018-01-07T08:34:08.449Z,944
2018-01-07T08:35:17.237Z,964
2018-01-07T08:36:26.017Z,984
2018-01-07T08:37:35.062Z,1000
2018-01-07T08:38:44.103Z,1020
2018-01-07T08:39:52.618Z,1044
2018-01-07T08:41:01.395Z,1060
2018-01-07T08:42:09.913Z,1084
2018-01-07T08:43:18.429Z,1104
2018-01-07T08:44:27.478Z,1120
2018-01-07T08:45:36.255Z,1140
2018-01-07T08:46:45.039Z,1160
2018-01-07T08:47:53.555Z,1184
2018-01-07T08:49:02.072Z,1208
2018-01-07T08:50:10.854Z,1232
2018-01-07T08:51:19.906Z,1264
2018-01-07T08:52:28.691Z,1292
2018-01-07T08:53:38.224Z,1320
2018-01-07T08:54:46.740Z,1352
2018-01-07T08:55:55.519Z,1376
2018-01-07T08:57:04.829Z,1400
2018-01-07T08:58:14.138Z,1436
2018-01-07T08:59:22.653Z,1448
2018-01-07T09:00:31.439Z,1476
2018-01-07T09:01:39.958Z,1516
2018-01-07T09:02:48.735Z,1540
2018-01-07T09:03:58.045Z,1588
2018-01-07T09:05:06.557Z,1612
2018-01-07T09:06:15.334Z,1656
2018-01-07T09:07:24.112Z,1708
2018-01-07T09:08:32.628Z,1748
2018-01-07T09:09:41.438Z,1812
2018-01-07T09:10:49.953Z,1840
2018-01-07T09:11:58.733Z,1892
2018-01-07T09:13:07.252Z,1960
2018-01-07T09:14:15.773Z,2020
2018-01-07T09:15:24.288Z,2064
2018-01-07T09:16:33.069Z,2112
2018-01-07T09:17:41.588Z,2164
2018-01-07T09:18:50.369Z,2252
2018-01-07T09:19:59.408Z,2292
2018-01-07T09:21:08.468Z,2372
2018-01-07T09:22:16.978Z,2376
2018-01-07T09:23:25.496Z,2480
2018-01-07T09:24:34.009Z,2536
2018-01-07T09:25:42.805Z,2604
2018-01-07T09:26:51.591Z,2712
2018-01-07T09:28:00.640Z,2796
2018-01-07T09:29:09.420Z,2820
2018-01-07T09:30:17.937Z,2944
2018-01-07T09:31:26.452Z,2896
2018-01-07T09:32:35.234Z,3048
2018-01-07T09:33:44.294Z,3056
2018-01-07T09:34:53.081Z,3172
2018-01-07T09:36:01.598Z,3344
2018-01-07T09:37:10.647Z,3364
2018-01-07T09:38:19.164Z,3412
2018-01-07T09:39:27.946Z,3332
2018-01-07T09:40:36.462Z,3456
2018-01-07T09:41:45.787Z,3492
2018-01-07T09:42:54.828Z,3372
2018-01-07T09:44:03.874Z,3492
2018-01-07T09:45:12.919Z,3404
2018-01-07T09:46:22.230Z,3536
2018-01-07T09:47:31.272Z,3696
2018-01-07T09:48:40.055Z,3620
2018-01-07T09:49:48.575Z,3584
2018-01-07T09:50:57.892Z,3712
2018-01-07T09:52:06.684Z,3604
2018-01-07T09:53:15.466Z,3584
2018-01-07T09:54:24.515Z,3836
2018-01-07T09:55:33.566Z,3516
2018-01-07T09:56:42.082Z,3596
2018-01-07T09:57:51.317Z,3508
2018-01-07T09:59:00.370Z,3300
2018-01-07T10:00:08.893Z,3396
2018-01-07T10:01:17.412Z,3252
2018-01-07T10:02:25.933Z,3344
2018-01-07T10:03:34.719Z,3400
2018-01-07T10:04:43.495Z,3352
2018-01-07T10:05:52.280Z,3316
2018-01-07T10:07:00.795Z,3336
2018-01-07T10:08:09.573Z,3404
2018-01-07T10:09:18.182Z,3464
2018-01-07T10:10:26.808Z,3588
2018-01-07T10:11:35.415Z,3888
2018-01-07T10:12:44.376Z,3720
2018-01-07T10:13:53.204Z,3780
2018-01-07T10:15:01.866Z,3708
2018-01-07T10:16:10.650Z,3716
2018-01-07T10:17:19.432Z,3584
2018-01-07T10:18:27.949Z,3512
2018-01-07T10:19:36.463Z,4380
2018-01-07T10:20:44.975Z,3308
2018-01-07T10:21:54.022Z,3504
2018-01-07T10:23:02.539Z,3504
2018-01-07T10:24:11.585Z,3128
2018-01-07T10:25:20.366Z,3172
2018-01-07T10:26:29.147Z,3144
2018-01-07T10:27:38.193Z,3064
2018-01-07T10:28:47.234Z,3312
2018-01-07T10:29:56.014Z,3436
2018-01-07T10:31:04.807Z,3040
2018-01-07T10:32:13.592Z,2804
2018-01-07T10:33:22.371Z,3164
2018-01-07T10:34:30.886Z,3268
2018-01-07T10:35:39.404Z,3468
2018-01-07T10:36:48.182Z,3556
2018-01-07T10:37:57.228Z,3712
2018-01-07T10:39:06.276Z,4000
2018-01-07T10:40:15.323Z,4020
2018-01-07T10:41:24.898Z,3340
2018-01-07T10:42:33.416Z,3620
2018-01-07T10:43:42.202Z,2940
2018-01-07T10:44:51.244Z,2912
2018-01-07T10:45:59.766Z,3536
2018-01-07T10:47:08.556Z,3184
2018-01-07T10:48:17.338Z,3376
2018-01-07T10:49:25.857Z,3276
2018-01-07T10:50:34.369Z,3000
2018-01-07T10:51:43.159Z,3412
2018-01-07T10:52:52.212Z,3524
2018-01-07T10:54:01.261Z,3128
2018-01-07T10:55:10.049Z,3500
2018-01-07T10:56:19.093Z,3616
2018-01-07T10:57:28.139Z,3760
2018-01-07T10:58:36.922Z,3404
2018-01-07T10:59:46.245Z,3992
2018-01-07T11:00:55.028Z,3008
2018-01-07T11:02:03.828Z,3004
2018-01-07T11:03:12.615Z,3652
2018-01-07T11:04:21.664Z,3316
2018-01-07T11:05:30.710Z,3936
2018-01-07T11:06:39.764Z,3656
2018-01-07T11:07:49.078Z,4328
2018-01-07T11:08:57.591Z,3876
2018-01-07T11:10:06.377Z,3772
2018-01-07T11:11:15.160Z,3420
2018-01-07T11:12:23.945Z,3552
2018-01-07T11:13:32.991Z,3908
2018-01-07T11:14:41.771Z,3788
2018-01-07T11:15:50.810Z,4156
2018-01-07T11:16:59.857Z,3392
2018-01-07T11:18:08.377Z,3556
2018-01-07T11:19:17.684Z,3416
2018-01-07T11:20:26.737Z,3692
2018-01-07T11:21:36.047Z,3696
2018-01-07T11:22:44.567Z,3884
2018-01-07T11:23:53.356Z,3868
2018-01-07T11:25:02.144Z,4340
2018-01-07T11:26:10.660Z,3736
2018-01-07T11:27:19.439Z,3700
2018-01-07T11:28:27.955Z,3312
2018-01-07T11:29:36.752Z,3448
2018-01-07T11:30:45.266Z,3836
2018-01-07T11:31:54.315Z,3872
2018-01-07T11:33:03.370Z,3480
2018-01-07T11:34:12.423Z,3608
2018-01-07T11:35:21.479Z,3680
2018-01-07T11:36:30.262Z,4108
2018-01-07T11:37:39.045Z,3432
2018-01-07T11:38:47.828Z,3844
2018-01-07T11:39:56.614Z,3648
2018-01-07T11:41:05.925Z,4216
2018-01-07T11:42:14.706Z,3828
2018-01-07T11:43:23.483Z,4160
2018-01-07T11:44:32.007Z,3812
2018-01-07T11:45:41.589Z,4260
2018-01-07T11:46:50.105Z,4096
2018-01-07T11:47:58.886Z,4380
2018-01-07T11:49:08.458Z,4240
2018-01-07T11:50:17.241Z,4212
2018-01-07T11:51:26.301Z,3904
2018-01-07T11:52:36.015Z,3668
2018-01-07T11:53:45.334Z,3752
2018-01-07T11:54:54.123Z,3488
2018-01-07T11:56:02.909Z,3340
2018-01-07T11:57:11.955Z,3820
2018-01-07T11:58:21.272Z,3788
2018-01-07T11:59:29.791Z,3352
2018-01-07T12:00:38.842Z,3432
2018-01-07T12:01:48.156Z,3236
2018-01-07T12:02:56.938Z,3500
2018-01-07T12:04:05.719Z,3876
2018-01-07T12:05:14.502Z,3560
2018-01-07T12:06:23.298Z,3716
2018-01-07T12:07:31.821Z,4020
2018-01-07T12:08:40.339Z,3612
2018-01-07T12:09:49.116Z,3548
2018-01-07T12:10:58.426Z,3872
2018-01-07T12:12:06.947Z,4228
2018-01-07T12:13:15.732Z,4360
2018-01-07T12:14:24.513Z,3908
2018-01-07T12:15:33.040Z,4148
2018-01-07T12:16:42.088Z,4172
2018-01-07T12:17:51.130Z,4252
2018-01-07T12:18:59.911Z,4408
2018-01-07T12:20:08.702Z,4272
2018-01-07T12:21:17.807Z,4256
2018-01-07T12:22:26.592Z,4448
2018-01-07T12:23:35.640Z,4036
2018-01-07T12:24:44.696Z,3808
2018-01-07T12:25:53.480Z,3812
2018-01-07T12:27:02.790Z,3848
2018-01-07T12:28:11.982Z,3664
2018-01-07T12:29:20.761Z,3660
2018-01-07T12:30:29.547Z,3740
2018-01-07T12:31:38.601Z,3696
2018-01-07T12:32:47.385Z,3784
2018-01-07T12:33:56.167Z,3792
2018-01-07T12:35:05.213Z,3692
2018-01-07T12:36:14.263Z,3696
2018-01-07T12:37:23.052Z,3404
2018-01-07T12:38:31.851Z,3192
2018-01-07T12:39:40.345Z,3016
2018-01-07T12:40:49.127Z,2988
2018-01-07T12:41:57.907Z,3036
2018-01-07T12:43:06.692Z,3088
2018-01-07T12:44:16.002Z,3228
2018-01-07T12:45:25.597Z,2908
2018-01-07T12:46:34.120Z,2864
2018-01-07T12:47:43.174Z,2796
2018-01-07T12:48:51.961Z,2764
2018-01-07T12:50:00.748Z,2740
2018-01-07T12:51:10.058Z,2748
2018-01-07T12:52:18.578Z,2732
2018-01-07T12:53:27.373Z,2748
2018-01-07T12:54:36.691Z,2720
2018-01-07T12:55:45.203Z,2716
2018-01-07T12:56:53.984Z,2688
2018-01-07T12:58:02.498Z,2656
2018-01-07T12:59:11.013Z,2648
2018-01-07T13:00:19.532Z,2664
2018-01-07T13:01:28.319Z,2668
2018-01-07T13:02:37.364Z,2628
2018-01-07T13:03:45.889Z,2620
2018-01-07T13:04:54.681Z,2612
2018-01-07T13:06:03.463Z,2604
2018-01-07T13:07:12.267Z,2596
2018-01-07T13:08:21.319Z,2596
2018-01-07T13:09:30.361Z,2596
2018-01-07T13:10:39.144Z,2572
2018-01-07T13:11:47.930Z,2560
2018-01-07T13:12:56.986Z,2540
2018-01-07T13:14:06.297Z,2520
2018-01-07T13:15:14.816Z,2536
2018-01-07T13:16:23.599Z,2536
2018-01-07T13:17:32.658Z,2532
2018-01-07T13:18:41.436Z,2528
2018-01-07T13:19:50.222Z,2516
2018-01-07T13:20:59.797Z,2508
2018-01-07T13:22:08.314Z,2496
2018-01-07T13:23:17.102Z,2484
2018-01-07T13:24:25.880Z,2488
2018-01-07T13:25:34.660Z,2352
2018-01-07T13:26:43.449Z,2464
2018-01-07T13:27:52.495Z,2444
2018-01-07T13:29:01.016Z,2440
2018-01-07T13:30:09.533Z,2440
2018-01-07T13:31:18.579Z,2432
2018-01-07T13:32:27.865Z,2436
2018-01-07T13:33:36.910Z,2428
2018-01-07T13:34:45.694Z,2408
2018-01-07T13:35:54.476Z,2400
2018-01-07T13:37:03.792Z,2404
2018-01-07T13:38:12.579Z,2384
2018-01-07T13:39:21.105Z,2384
2018-01-07T13:40:29.890Z,2364
2018-01-07T13:41:38.957Z,2376
2018-01-07T13:42:47.475Z,2412
2018-01-07T13:43:56.258Z,2384
2018-01-07T13:45:05.569Z,2344
2018-01-07T13:46:14.085Z,2324
2018-01-07T13:47:22.867Z,2312
2018-01-07T13:48:31.648Z,2296
2018-01-07T13:49:40.430Z,2296
2018-01-07T13:50:48.954Z,2284
2018-01-07T13:51:57.742Z,2280
2018-01-07T13:53:06.525Z,2268
2018-01-07T13:54:15.043Z,2268
2018-01-07T13:55:24.092Z,2220
2018-01-07T13:56:32.610Z,2272
2018-01-07T13:57:41.126Z,2280
2018-01-07T13:58:50.441Z,2212
2018-01-07T13:59:59.256Z,2200
2018-01-07T14:01:08.271Z,2188
2018-01-07T14:02:17.317Z,2168
2018-01-07T14:03:26.098Z,2160
2018-01-07T14:04:34.875Z,2144
2018-01-07T14:05:43.654Z,2140
2018-01-07T14:06:52.436Z,2140
2018-01-07T14:08:00.956Z,2128
2018-01-07T14:09:09.478Z,2116
2018-01-07T14:10:18.262Z,2092
2018-01-07T14:11:27.042Z,2068
2018-01-07T14:12:35.829Z,2060
2018-01-07T14:13:44.662Z,2084
2018-01-07T14:14:53.415Z,2108
2018-01-07T14:16:01.974Z,2096
2018-01-07T14:17:10.765Z,2008
2018-01-07T14:18:19.811Z,1972
2018-01-07T14:19:28.605Z,1952
2018-01-07T14:20:37.457Z,1924
2018-01-07T14:21:46.243Z,1912
2018-01-07T14:22:54.769Z,1900
2018-01-07T14:24:03.859Z,1896
2018-01-07T14:25:12.695Z,1872
2018-01-07T14:26:21.484Z,1856
2018-01-07T14:27:30.310Z,1832
2018-01-07T14:28:38.812Z,1812
2018-01-07T14:29:47.890Z,1796
2018-01-07T14:30:56.966Z,1772
2018-01-07T14:32:05.766Z,1756
2018-01-07T14:33:14.563Z,1744
2018-01-07T14:34:24.139Z,1728
2018-01-07T14:35:33.198Z,1708
2018-01-07T14:36:41.989Z,1680
2018-01-07T14:37:51.095Z,1672
2018-01-07T14:39:00.386Z,1640
2018-01-07T14:40:09.177Z,1612
2018-01-07T14:41:18.010Z,1612
2018-01-07T14:42:26.793Z,1552
2018-01-07T14:43:35.577Z,1524
2018-01-07T14:44:44.112Z,1508
2018-01-07T14:45:52.911Z,1472
2018-01-07T14:47:01.695Z,1452
2018-01-07T14:48:10.488Z,1436
2018-01-07T14:49:19.019Z,1424
2018-01-07T14:50:28.082Z,1388
2018-01-07T14:51:36.627Z,1368
2018-01-07T14:52:45.156Z,1340
2018-01-07T14:53:53.957Z,1316
2018-01-07T14:55:03.041Z,1292
2018-01-07T14:56:11.886Z,1260
2018-01-07T14:57:20.993Z,1228
2018-01-07T14:58:29.778Z,1200
2018-01-07T14:59:38.569Z,1172
2018-01-07T15:00:47.106Z,1140
2018-01-07T15:01:55.908Z,1104
2018-01-07T15:03:04.699Z,1076
2018-01-07T15:04:13.751Z,1048
2018-01-07T15:05:22.339Z,1016
2018-01-07T15:06:31.378Z,992
2018-01-07T15:07:40.741Z,960
2018-01-07T15:08:49.527Z,932
2018-01-07T15:09:58.062Z,908
2018-01-07T15:11:06.626Z,876
2018-01-07T15:12:15.143Z,852
2018-01-07T15:13:24.199Z,820
2018-01-07T15:14:33.522Z,792
2018-01-07T15:15:42.848Z,760
2018-01-07T15:16:51.640Z,728
2018-01-07T15:18:00.451Z,696
2018-01-07T15:19:08.975Z,664
2018-01-07T15:20:17.498Z,632
2018-01-07T15:21:26.027Z,604
2018-01-07T15:22:34.824Z,568
2018-01-07T15:23:43.391Z,540
2018-01-07T15:24:52.448Z,516
2018-01-07T15:26:00.966Z,488
2018-01-07T15:27:10.276Z,464
2018-01-07T15:28:19.321Z,436
2018-01-07T15:29:28.374Z,408
2018-01-07T15:30:37.155Z,380
2018-01-07T15:31:46.252Z,352
2018-01-07T15:32:54.767Z,328
2018-01-07T15:34:03.551Z,304
2018-01-07T15:35:12.353Z,280
2018-01-07T15:36:21.141Z,256
2018-01-07T15:37:29.654Z,232
2018-01-07T15:38:38.430Z,212
2018-01-07T15:39:47.216Z,196
2018-01-07T15:40:56.002Z,176
2018-01-07T15:42:04.566Z,156
2018-01-07T15:43:13.299Z,140
2018-01-07T15:44:22.082Z,128
2018-01-07T15:45:30.600Z,116
2018-01-07T15:46:39.643Z,100
2018-01-07T15:47:48.683Z,92
2018-01-07T15:48:57.195Z,84
2018-01-07T15:50:05.978Z,72
2018-01-07T15:51:14.760Z,64
2018-01-07T15:52:23.545Z,56
2018-01-07T15:53:32.060Z,48
2018-01-07T15:54:40.907Z,40
2018-01-07T15:55:49.690Z,40
2018-01-07T15:56:58.746Z,32
2018-01-07T15:58:08.066Z,28
2018-01-07T15:59:16.855Z,20
2018-01-07T16:00:25.898Z,20
2018-01-07T16:01:35.206Z,16
2018-01-07T16:02:44.254Z,12
2018-01-07T16:03:53.295Z,8
2018-01-07T16:05:01.809Z,8